createdAt,value
2018-12-10T00:01:04.493Z,6.85
2018-12-10T00:03:35.216Z,4.40
2018-12-10T00:06:08.360Z,4.65
2018-12-10T00:08:37.607Z,11.20
2018-12-10T00:11:17.917Z,19.48
2018-12-10T00:13:52.022Z,6.03
2018-12-10T00:16:25.800Z,12.07
2018-12-10T00:18:55.019Z,9.93
2018-12-10T00:21:23.935Z,13.32
2018-12-10T00:23:57.667Z,17.12
2018-12-10T00:26:28.837Z,5.80
2018-12-10T00:29:02.505Z,13.18
2018-12-10T00:31:33.721Z,19.77
2018-12-10T00:34:14.219Z,10.43
2018-12-10T00:36:45.532Z,12.90
2018-12-10T00:39:25.797Z,8.80
2018-12-10T00:41:59.838Z,7.70
2018-12-10T00:44:31.012Z,13.83
2018-12-10T00:46:59.839Z,12.33
2018-12-10T00:49:31.009Z,9.75
2018-12-10T00:52:04.841Z,8.45
2018-12-10T00:54:35.879Z,11.05
2018-12-10T00:57:06.843Z,9.75
2018-12-10T00:59:42.511Z,19.90
2018-12-10T01:02:23.263Z,12.90
2018-12-10T01:04:56.535Z,10.80
2018-12-10T01:07:27.561Z,19.37
2018-12-10T01:09:56.550Z,11.22
2018-12-10T01:12:25.253Z,11.05
2018-12-10T01:14:58.705Z,12.82
2018-12-10T01:17:32.499Z,12.37
2018-12-10T01:20:04.226Z,15.25
2018-12-10T01:22:44.052Z,12.00
2018-12-10T01:25:14.586Z,13.60
2018-12-10T01:27:54.933Z,14.98
2018-12-10T01:30:25.399Z,18.80
2018-12-10T01:32:56.526Z,22.10
2018-12-10T01:35:33.974Z,9.03
2018-12-10T01:38:07.102Z,9.83
2018-12-10T01:40:37.471Z,11.33
2018-12-10T01:43:08.612Z,9.23
2018-12-10T01:45:48.781Z,11.15
2018-12-10T01:48:21.900Z,12.45
2018-12-10T01:50:59.823Z,11.03
2018-12-10T01:53:30.317Z,11.20
2018-12-10T01:55:59.503Z,13.43
2018-12-10T01:58:33.544Z,15.05
2018-12-10T02:01:03.983Z,13.22
2018-12-10T02:03:34.478Z,9.65
2018-12-10T02:06:05.459Z,8.78
2018-12-10T02:08:36.859Z,12.73
2018-12-10T02:11:07.908Z,12.73
2018-12-10T02:13:39.157Z,16.95
2018-12-10T02:16:08.335Z,8.38
2018-12-10T02:18:38.763Z,11.30
2018-12-10T02:21:09.869Z,11.78
2018-12-10T02:23:40.968Z,10.38
2018-12-10T02:26:09.938Z,11.68
2018-12-10T02:28:46.663Z,6.62
2018-12-10T02:31:17.261Z,8.70
2018-12-10T02:33:48.548Z,12.58
2018-12-10T02:36:19.678Z,7.53
2018-12-10T02:38:50.079Z,11.88
2018-12-10T02:41:21.349Z,11.22
2018-12-10T02:43:52.298Z,6.58
2018-12-10T02:46:23.360Z,12.63
2018-12-10T02:48:54.738Z,12.05
2018-12-10T02:51:23.845Z,9.38
2018-12-10T02:53:54.787Z,9.03
2018-12-10T02:56:28.521Z,4.62
2018-12-10T02:58:58.985Z,8.93
2018-12-10T03:01:39.526Z,14.43
2018-12-10T03:04:09.401Z,7.95
2018-12-10T03:06:40.315Z,9.43
2018-12-10T03:09:11.287Z,14.83
2018-12-10T03:11:40.299Z,11.33
2018-12-10T03:14:09.346Z,7.20
2018-12-10T03:16:39.786Z,10.90
2018-12-10T03:19:08.932Z,7.80
2018-12-10T03:21:40.178Z,14.58
2018-12-10T03:24:11.147Z,9.03
2018-12-10T03:26:42.001Z,7.00
2018-12-10T03:29:12.977Z,8.68
2018-12-10T03:31:50.664Z,13.93
2018-12-10T03:34:21.995Z,10.32
2018-12-10T03:36:50.261Z,8.90
2018-12-10T03:39:23.757Z,4.83
2018-12-10T03:41:57.401Z,6.67
2018-12-10T03:44:28.739Z,10.95
2018-12-10T03:46:59.763Z,7.35
2018-12-10T03:49:28.667Z,7.12
2018-12-10T03:52:02.730Z,9.95
2018-12-10T03:54:33.069Z,5.45
2018-12-10T03:57:04.027Z,12.07
2018-12-10T03:59:35.139Z,7.10
2018-12-10T04:02:06.112Z,8.83
2018-12-10T04:04:36.919Z,10.53
2018-12-10T04:07:07.784Z,10.80
2018-12-10T04:09:38.818Z,5.28
2018-12-10T04:12:12.620Z,5.45
2018-12-10T04:14:43.040Z,12.98
2018-12-10T04:17:13.958Z,11.40
2018-12-10T04:19:44.800Z,7.33
2018-12-10T04:22:13.884Z,4.22
2018-12-10T04:24:45.809Z,9.45
2018-12-10T04:27:21.897Z,7.72
2018-12-10T04:29:52.286Z,5.28
2018-12-10T04:32:23.228Z,10.58
2018-12-10T04:34:54.275Z,5.78
2018-12-10T04:37:23.353Z,6.22
2018-12-10T04:39:59.000Z,11.65
2018-12-10T04:42:30.124Z,4.12
2018-12-10T04:45:04.619Z,8.40
2018-12-10T04:47:35.379Z,10.75
2018-12-10T04:50:06.758Z,6.80
2018-12-10T04:52:38.023Z,2.65
2018-12-10T04:55:07.125Z,6.03
2018-12-10T04:57:37.859Z,6.50
2018-12-10T05:00:08.757Z,3.30
2018-12-10T05:02:42.278Z,4.87
2018-12-10T05:05:13.384Z,4.60
2018-12-10T05:07:44.737Z,7.62
2018-12-10T05:10:15.606Z,8.83
2018-12-10T05:12:49.654Z,4.85
2018-12-10T05:15:20.885Z,7.87
2018-12-10T05:17:51.964Z,6.75
2018-12-10T05:20:22.542Z,11.73
2018-12-10T05:22:53.103Z,6.62
2018-12-10T05:25:24.028Z,4.95
2018-12-10T05:27:55.199Z,3.45
2018-12-10T05:30:24.213Z,6.60
2018-12-10T05:32:55.392Z,5.03
2018-12-10T05:35:24.508Z,5.75
2018-12-10T05:37:55.555Z,5.28
2018-12-10T05:40:26.644Z,5.67
2018-12-10T05:42:57.965Z,3.20
2018-12-10T05:45:28.884Z,11.15
2018-12-10T05:47:59.856Z,7.67
2018-12-10T05:50:30.852Z,6.10
2018-12-10T05:53:01.785Z,5.95
2018-12-10T05:55:35.018Z,5.05
2018-12-10T05:58:08.182Z,6.70
2018-12-10T06:00:42.026Z,10.00
2018-12-10T06:03:13.278Z,8.28
2018-12-10T06:05:42.124Z,8.85
2018-12-10T06:08:13.057Z,12.15
2018-12-10T06:10:44.276Z,9.85
2018-12-10T06:13:13.542Z,5.62
2018-12-10T06:15:44.896Z,7.10
2018-12-10T06:18:15.904Z,6.22
2018-12-10T06:20:50.944Z,7.35
2018-12-10T06:23:21.500Z,7.42
2018-12-10T06:25:52.655Z,4.75
2018-12-10T06:28:23.821Z,7.37
2018-12-10T06:30:57.554Z,6.03
2018-12-10T06:33:30.660Z,5.95
2018-12-10T06:36:01.948Z,9.33
2018-12-10T06:38:32.895Z,4.33
2018-12-10T06:41:03.869Z,4.33
2018-12-10T06:43:32.616Z,15.08
2018-12-10T06:46:06.430Z,6.90
2018-12-10T06:48:40.587Z,9.30
2018-12-10T06:51:11.416Z,5.72
2018-12-10T06:53:42.344Z,8.80
2018-12-10T06:56:11.496Z,5.92
2018-12-10T06:58:40.672Z,6.20
2018-12-10T07:01:11.838Z,10.00
2018-12-10T07:03:44.785Z,6.17
2018-12-10T07:06:15.496Z,10.55
2018-12-10T07:08:45.977Z,5.20
2018-12-10T07:11:16.851Z,9.23
2018-12-10T07:13:46.162Z,5.70
2018-12-10T07:16:17.412Z,11.15
2018-12-10T07:18:48.383Z,11.40
2018-12-10T07:21:19.331Z,12.43
2018-12-10T07:23:50.414Z,10.45
2018-12-10T07:26:19.509Z,14.70
2018-12-10T07:28:53.551Z,9.25
2018-12-10T07:31:26.939Z,13.85
2018-12-10T07:33:58.195Z,11.93
2018-12-10T07:36:31.934Z,13.65
2018-12-10T07:39:04.503Z,12.60
2018-12-10T07:41:35.242Z,9.55
2018-12-10T07:44:04.241Z,16.27
2018-12-10T07:46:37.981Z,10.68
2018-12-10T07:49:06.729Z,11.10
2018-12-10T07:51:37.714Z,17.20
2018-12-10T07:54:11.098Z,15.48
2018-12-10T07:56:46.980Z,14.78
2018-12-10T07:59:27.352Z,10.43
2018-12-10T08:02:04.686Z,12.25
2018-12-10T08:04:44.961Z,13.72
2018-12-10T08:07:31.426Z,10.38
2018-12-10T08:10:02.216Z,16.75
2018-12-10T08:12:33.233Z,13.03
2018-12-10T08:18:09.809Z,8.73
2018-12-10T08:20:43.511Z,9.73
2018-12-10T08:23:25.868Z,9.05
2018-12-10T08:35:17.384Z,9.58
2018-12-10T08:40:41.069Z,7.33
2018-12-10T08:43:12.042Z,6.53
2018-12-10T08:45:46.683Z,8.78
2018-12-10T08:48:32.954Z,7.53
2018-12-10T08:51:02.026Z,7.12
2018-12-10T08:53:32.964Z,7.10
2018-12-10T08:59:06.680Z,7.95
2018-12-10T09:01:35.510Z,10.05
2018-12-10T09:04:15.748Z,5.62
2018-12-10T09:06:55.542Z,6.80
2018-12-10T09:09:28.874Z,5.10
2018-12-10T09:11:57.955Z,6.87
2018-12-10T09:14:38.322Z,8.35
2018-12-10T09:17:11.738Z,5.55
2018-12-10T09:19:45.547Z,9.68
2018-12-10T09:22:14.828Z,6.03
2018-12-10T09:24:55.165Z,6.97
2018-12-10T09:27:25.509Z,5.62
2018-12-10T09:29:58.842Z,3.20
2018-12-10T09:32:29.230Z,6.00
2018-12-10T09:35:06.761Z,4.10
2018-12-10T09:37:40.042Z,11.63
2018-12-10T09:40:11.312Z,4.85
2018-12-10T09:42:41.961Z,5.15
2018-12-10T09:45:11.047Z,4.10
2018-12-10T09:47:51.312Z,7.78
2018-12-10T09:50:21.775Z,9.50
2018-12-10T09:52:50.531Z,4.62
2018-12-10T09:55:21.354Z,3.92
2018-12-10T09:58:01.564Z,3.95
2018-12-10T10:00:32.075Z,3.67
2018-12-10T10:06:04.917Z,6.12
2018-12-10T10:08:45.581Z,5.22
2018-12-10T10:11:16.773Z,6.83
2018-12-10T10:13:57.714Z,9.75
2018-12-10T10:16:38.313Z,12.30
2018-12-10T10:19:18.246Z,3.42
2018-12-10T10:21:48.663Z,11.63
2018-12-10T10:24:19.401Z,4.97
2018-12-10T10:26:48.274Z,7.92
2018-12-10T10:29:19.323Z,5.12
2018-12-10T10:31:50.371Z,6.17
2018-12-10T10:34:19.306Z,5.33
2018-12-10T10:36:50.298Z,7.83
2018-12-10T10:39:19.617Z,6.25
2018-12-10T10:41:48.270Z,6.10
2018-12-10T10:44:18.114Z,10.90
2018-12-10T10:46:51.783Z,9.68
2018-12-10T10:49:38.966Z,7.87
2018-12-10T10:52:12.275Z,7.60
2018-12-10T10:54:42.252Z,11.10
2018-12-10T10:57:31.490Z,8.55
2018-12-10T11:00:08.612Z,14.00
2018-12-10T11:02:41.916Z,13.45
2018-12-10T11:05:22.590Z,13.03
2018-12-10T11:14:00.960Z,15.20
2018-12-10T11:16:35.319Z,17.42
2018-12-10T11:19:06.011Z,11.70
2018-12-10T11:21:34.926Z,11.93
2018-12-10T11:24:13.130Z,16.97
2018-12-10T11:26:53.516Z,11.40
2018-12-10T11:29:34.136Z,12.43
2018-12-10T11:32:07.446Z,9.23
2018-12-10T11:34:41.817Z,13.32
2018-12-10T11:43:17.934Z,9.43
2018-12-10T11:45:51.706Z,5.55
2018-12-10T11:48:20.475Z,9.03
2018-12-10T11:50:55.141Z,5.35
2018-12-10T11:56:29.917Z,7.62
2018-12-10T11:59:03.097Z,12.03
2018-12-10T12:04:04.247Z,5.25
2018-12-10T12:06:44.645Z,6.22
2018-12-10T12:09:24.848Z,9.38
2018-12-10T12:11:54.025Z,5.37
2018-12-10T12:14:31.442Z,6.60
2018-12-10T12:17:12.065Z,6.10
2018-12-10T12:19:52.865Z,6.70
2018-12-10T12:22:25.997Z,3.80
2018-12-10T12:25:06.357Z,4.85
2018-12-10T12:27:39.701Z,4.03
2018-12-10T12:30:08.855Z,1.90
2018-12-10T12:32:39.490Z,4.42
2018-12-10T12:35:19.685Z,7.42
2018-12-10T12:37:50.034Z,7.35
2018-12-10T12:40:21.097Z,8.45
2018-12-10T12:42:51.957Z,8.45
2018-12-10T12:48:25.621Z,7.80
2018-12-10T12:51:06.051Z,4.90
2018-12-10T12:53:46.385Z,9.90
2018-12-10T12:56:16.294Z,5.00
2018-12-10T12:58:45.194Z,7.55
2018-12-10T13:01:15.890Z,11.25
2018-12-10T13:06:18.825Z,8.95
2018-12-10T13:08:49.585Z,11.80
2018-12-10T13:11:18.512Z,7.75
2018-12-10T13:13:52.106Z,7.45
2018-12-10T13:16:26.076Z,8.75
2018-12-10T13:19:06.529Z,11.70
2018-12-10T13:21:36.894Z,12.68
2018-12-10T13:24:05.822Z,10.58
2018-12-10T13:26:46.113Z,9.40
2018-12-10T13:29:15.531Z,9.15
2018-12-10T13:31:46.467Z,9.15
2018-12-10T13:34:15.119Z,6.87
2018-12-10T13:36:55.404Z,14.70
2018-12-10T13:39:26.620Z,7.75
2018-12-10T13:41:55.166Z,8.53
2018-12-10T13:44:25.906Z,7.35
2018-12-10T13:46:56.953Z,9.88
2018-12-10T13:49:37.236Z,7.30
2018-12-10T13:52:12.313Z,3.10
2018-12-10T13:54:46.214Z,2.85
2018-12-10T13:57:15.359Z,3.47
2018-12-10T13:59:46.259Z,5.95
2018-12-10T14:02:17.318Z,3.12
2018-12-10T14:04:49.588Z,5.37
2018-12-10T14:07:18.787Z,4.20
2018-12-10T14:09:52.686Z,9.83
2018-12-10T14:12:26.623Z,6.87
2018-12-10T14:14:57.797Z,8.43
2018-12-10T14:17:26.737Z,7.60
2018-12-10T14:20:00.534Z,4.20
2018-12-10T14:22:37.559Z,5.80
2018-12-10T14:25:20.741Z,6.47
2018-12-10T14:27:52.127Z,8.93
2018-12-10T14:30:27.680Z,7.72
2018-12-10T14:33:01.460Z,10.15
2018-12-10T14:35:30.296Z,7.95
2018-12-10T14:38:01.502Z,7.62
2018-12-10T14:40:32.543Z,7.70
2018-12-10T14:43:03.641Z,7.58
2018-12-10T14:45:37.596Z,4.72
2018-12-10T14:48:07.982Z,12.18
2018-12-10T14:50:36.963Z,15.48
2018-12-10T14:53:08.215Z,5.08
2018-12-10T14:55:37.082Z,19.25
2018-12-10T14:58:05.850Z,15.63
2018-12-10T15:00:36.597Z,10.38
2018-12-10T15:03:05.563Z,8.18
2018-12-10T15:05:34.713Z,11.08
2018-12-10T15:08:06.091Z,7.60
2018-12-10T15:10:36.863Z,8.83
2018-12-10T15:13:07.818Z,13.13
2018-12-10T15:15:39.040Z,13.43
2018-12-10T15:18:13.762Z,14.28
2018-12-10T15:20:44.900Z,10.45
2018-12-10T15:23:16.021Z,13.48
2018-12-10T15:25:46.413Z,10.23
2018-12-10T15:28:20.241Z,11.45
2018-12-10T15:30:48.515Z,10.65
2018-12-10T15:33:19.603Z,9.23
2018-12-10T15:35:50.757Z,15.48
2018-12-10T15:38:22.249Z,13.98
2018-12-10T15:40:53.074Z,9.70
2018-12-10T15:43:24.353Z,15.00
2018-12-10T15:45:53.408Z,14.87
2018-12-10T15:48:24.600Z,17.27
2018-12-10T15:50:53.660Z,12.28
2018-12-10T15:53:24.781Z,13.85
2018-12-10T15:55:55.175Z,15.28
2018-12-10T15:58:24.293Z,11.20
2018-12-10T16:00:55.454Z,16.20
2018-12-10T16:03:26.721Z,12.00
2018-12-10T16:05:57.821Z,11.30
2018-12-10T16:08:28.804Z,17.73
2018-12-10T16:10:57.549Z,17.15
2018-12-10T16:13:31.257Z,8.78
2018-12-10T16:16:02.534Z,13.50
2018-12-10T16:18:36.244Z,16.67
2018-12-10T16:21:07.463Z,14.70
2018-12-10T16:23:36.592Z,11.88
2018-12-10T16:26:11.599Z,13.70
2018-12-10T16:28:40.743Z,22.55
2018-12-10T16:31:11.714Z,15.35
2018-12-10T16:33:44.841Z,15.32
2018-12-10T16:36:55.801Z,21.40
2018-12-10T16:39:26.957Z,16.10
2018-12-10T16:42:04.468Z,16.17
2018-12-10T16:44:35.646Z,15.63
2018-12-10T16:47:06.498Z,23.12
2018-12-10T16:49:41.236Z,16.20
2018-12-10T16:52:14.381Z,16.30
2018-12-10T16:54:45.581Z,14.15
2018-12-10T16:57:16.758Z,19.00
2018-12-10T16:59:47.846Z,12.98
2018-12-10T17:02:19.018Z,16.82
2018-12-10T17:04:50.262Z,16.90
2018-12-10T17:07:21.194Z,12.10
2018-12-10T17:09:52.542Z,18.10
2018-12-10T17:12:23.799Z,27.05
2018-12-10T17:14:54.952Z,13.13
2018-12-10T17:17:26.353Z,13.30
2018-12-10T17:19:54.697Z,15.78
2018-12-10T17:22:25.999Z,12.13
2018-12-10T17:24:57.261Z,10.45
2018-12-10T17:27:27.606Z,8.88
2018-12-10T17:29:58.787Z,13.03
2018-12-10T17:32:27.802Z,11.85
2018-12-10T17:34:58.524Z,11.88
2018-12-10T17:37:27.674Z,18.75
2018-12-10T17:39:58.350Z,12.73
2018-12-10T17:42:29.130Z,7.12
2018-12-10T17:45:03.801Z,7.20
2018-12-10T17:47:35.263Z,10.60
2018-12-10T17:50:09.072Z,7.42
2018-12-10T17:52:38.170Z,13.15
2018-12-10T17:55:07.424Z,7.62
2018-12-10T17:57:40.956Z,10.15
2018-12-10T18:00:10.212Z,9.75
2018-12-10T18:02:41.381Z,16.73
2018-12-10T18:05:12.146Z,10.68
2018-12-10T18:07:42.990Z,15.03
2018-12-10T18:10:13.387Z,13.50
2018-12-10T18:12:44.714Z,13.32
2018-12-10T18:15:20.386Z,11.68
2018-12-10T18:17:51.433Z,11.75
2018-12-10T18:20:22.302Z,6.87
2018-12-10T18:22:52.641Z,12.40
2018-12-10T18:25:23.919Z,13.28
2018-12-10T18:27:53.177Z,11.50
2018-12-10T18:30:23.921Z,10.80
2018-12-10T18:32:54.968Z,8.05
2018-12-10T18:35:25.949Z,16.10
2018-12-10T18:37:54.907Z,23.18
2018-12-10T18:40:28.722Z,13.00
2018-12-10T18:43:00.049Z,12.43
2018-12-10T18:45:31.132Z,14.53
2018-12-10T18:48:02.364Z,11.55
2018-12-10T18:50:33.411Z,20.52
2018-12-10T18:53:04.115Z,10.55
2018-12-10T18:55:35.106Z,11.22
2018-12-10T18:58:06.087Z,13.15
2018-12-10T19:00:37.182Z,12.40
2018-12-10T19:03:15.004Z,17.17
2018-12-10T19:05:43.789Z,15.40
2018-12-10T19:08:12.668Z,18.00
2018-12-10T19:10:46.473Z,16.23
2018-12-10T19:13:16.840Z,16.52
2018-12-10T19:15:46.284Z,18.60
2018-12-10T19:18:17.025Z,20.12
2018-12-10T19:20:48.180Z,17.52
2018-12-10T19:23:19.368Z,19.87
2018-12-10T19:25:50.413Z,18.95
2018-12-10T19:28:24.133Z,21.80
2018-12-10T19:31:04.151Z,24.47
2018-12-10T19:33:32.722Z,19.92
2018-12-10T19:36:01.990Z,14.83
2018-12-10T19:38:35.859Z,21.62
2018-12-10T19:41:05.072Z,17.02
2018-12-10T19:43:34.126Z,16.62
2018-12-10T19:46:02.411Z,15.15
2018-12-10T19:48:33.595Z,12.68
2018-12-10T19:51:07.547Z,18.17
2018-12-10T19:53:38.801Z,16.93
2018-12-10T19:56:16.854Z,18.92
2018-12-10T19:58:48.158Z,17.52
2018-12-10T20:01:17.336Z,14.15
2018-12-10T20:03:48.385Z,16.60
2018-12-10T20:06:19.131Z,13.72
2018-12-10T20:08:48.278Z,14.80
2018-12-10T20:11:19.602Z,16.82
2018-12-10T20:13:50.468Z,16.35
2018-12-10T20:16:21.525Z,15.53
2018-12-10T20:18:52.695Z,15.08
2018-12-10T20:21:21.881Z,16.15
2018-12-10T20:23:52.839Z,17.52
2018-12-10T20:26:21.755Z,19.05
2018-12-10T20:29:02.315Z,17.17
2018-12-10T20:31:30.882Z,14.83
2018-12-10T20:34:02.213Z,18.23
2018-12-10T20:36:33.474Z,15.10
2018-12-10T20:39:05.726Z,9.88
2018-12-10T20:41:34.854Z,18.52
2018-12-10T20:44:06.033Z,22.52
2018-12-10T20:46:37.150Z,13.38
2018-12-10T20:49:08.199Z,18.80
2018-12-10T20:51:39.278Z,13.15
2018-12-10T20:54:10.532Z,11.33
2018-12-10T20:56:41.222Z,8.03
2018-12-10T20:59:12.354Z,13.75
2018-12-10T21:01:43.636Z,10.35
2018-12-10T21:04:14.888Z,9.08
2018-12-10T21:06:50.561Z,9.05
2018-12-10T21:09:19.751Z,15.58
2018-12-10T21:11:48.766Z,9.00
2018-12-10T21:14:22.745Z,12.47
2018-12-10T21:16:51.828Z,18.55
2018-12-10T21:19:22.699Z,16.97
2018-12-10T21:21:51.888Z,10.18
2018-12-10T21:24:25.588Z,10.98
2018-12-10T21:26:58.805Z,18.57
2018-12-10T21:29:29.932Z,14.60
2018-12-10T21:32:01.053Z,14.53
2018-12-10T21:34:35.092Z,13.80
2018-12-10T21:42:10.590Z,12.95
2018-12-10T21:44:40.924Z,8.98
2018-12-10T21:47:12.176Z,19.15
2018-12-10T21:49:46.208Z,14.53
2018-12-10T21:52:17.365Z,18.17
2018-12-10T21:54:48.610Z,19.30
2018-12-10T21:57:19.909Z,18.10
2018-12-10T21:59:50.737Z,20.55
2018-12-10T22:02:24.672Z,18.98
2018-12-10T22:04:55.815Z,12.33
2018-12-10T22:07:36.405Z,20.45
2018-12-10T22:10:08.061Z,18.90
2018-12-10T22:12:43.764Z,18.32
2018-12-10T22:15:24.360Z,13.38
2018-12-10T22:17:54.714Z,14.87
2018-12-10T22:20:25.056Z,16.80
2018-12-10T22:22:54.131Z,16.90
2018-12-10T22:25:23.097Z,11.50
2018-12-10T22:27:54.341Z,17.12
2018-12-10T22:30:25.604Z,15.68
2018-12-10T22:32:56.898Z,16.52
2018-12-10T22:35:30.361Z,11.63
2018-12-10T22:37:59.643Z,16.80
2018-12-10T22:40:30.812Z,14.80
2018-12-10T22:43:04.394Z,13.53
2018-12-10T22:45:33.529Z,16.07
2018-12-10T22:48:04.569Z,14.83
2018-12-10T22:50:35.745Z,20.30
2018-12-10T22:53:07.277Z,12.63
2018-12-10T22:55:44.825Z,19.40
2018-12-10T22:58:27.029Z,13.45
2018-12-10T23:01:00.577Z,17.07
2018-12-10T23:03:29.853Z,14.68
2018-12-10T23:06:00.746Z,20.90
2018-12-10T23:08:31.818Z,21.30
2018-12-10T23:11:03.122Z,16.45
2018-12-10T23:13:34.011Z,11.30
2018-12-10T23:16:20.377Z,14.10
2018-12-10T23:19:00.749Z,24.43
2018-12-10T23:21:31.427Z,17.35
2018-12-10T23:24:02.090Z,19.52
2018-12-10T23:26:32.845Z,18.48
2018-12-10T23:29:03.840Z,14.10
2018-12-10T23:31:34.914Z,13.58
2018-12-10T23:34:05.897Z,26.30
2018-12-10T23:36:37.057Z,20.15
2018-12-10T23:39:07.423Z,14.30
2018-12-10T23:44:15.703Z,14.00
2018-12-10T23:46:56.018Z,27.40
2018-12-10T23:49:30.757Z,16.90
2018-12-10T23:52:05.795Z,19.05
2018-12-10T23:54:34.860Z,21.33
2018-12-10T23:57:06.137Z,12.53
2018-12-10T23:59:36.933Z,14.87
